Time;durP1;ratioP1;P1;durP2;ratioP2;P2;SDS_P1;SDS_P2;PMS_P1;PMS_P2;Temp;Humidity;BMP_temperature;BMP_pressure;BME280_temperature;BME280_humidity;BME280_pressure;Samples;Min_cycle;Max_cycle;Signal;HPM_P1;HPM_P2
2022/07/12 00:00:32;;;;;;;5.10;3.53;;;;;;;14.65;51.53;95922.13;5086802;28;20237;-80
2022/07/12 00:02:58;;;;;;;3.63;3.10;;;;;;;14.68;51.24;95923.59;5085433;28;20197;-80
2022/07/12 00:05:23;;;;;;;3.40;3.10;;;;;;;14.61;50.87;95918.09;5089217;28;20028;-80
2022/07/12 00:07:49;;;;;;;4.80;3.08;;;;;;;14.54;50.83;95925.31;5088064;28;20023;-80
2022/07/12 00:10:14;;;;;;;3.78;3.13;;;;;;;14.55;50.89;95924.28;5088423;28;20016;-80
2022/07/12 00:12:40;;;;;;;3.70;3.20;;;;;;;14.58;50.87;95923.88;5105991;28;20436;-80
2022/07/12 00:15:06;;;;;;;3.97;3.05;;;;;;;14.46;50.81;95921.69;5087842;28;20477;-79
2022/07/12 00:17:31;;;;;;;4.35;3.10;;;;;;;14.46;50.74;95918.97;5106505;28;20019;-80
2022/07/12 00:19:57;;;;;;;4.07;2.90;;;;;;;14.44;50.71;95910.22;5087580;28;20548;-80
2022/07/12 00:22:23;;;;;;;4.85;3.10;;;;;;;14.49;50.65;95922.34;5088494;28;20024;-79
2022/07/12 00:24:49;;;;;;;4.38;2.72;;;;;;;14.49;50.82;95916.94;5086830;28;20048;-80
2022/07/12 00:27:14;;;;;;;4.30;3.05;;;;;;;14.51;51.29;95917.59;5106805;28;20512;-79
2022/07/12 00:29:39;;;;;;;3.72;2.90;;;;;;;14.43;51.24;95915.81;5105661;28;20031;-79
2022/07/12 00:32:07;;;;;;;3.20;2.90;;;;;;;14.39;51.01;95912.69;5088322;28;20055;-79
2022/07/12 00:34:33;;;;;;;4.70;2.97;;;;;;;14.36;50.77;95913.06;5106061;28;20023;-80
2022/07/12 00:36:58;;;;;;;4.00;2.90;;;;;;;14.36;50.48;95921.16;5106033;28;20051;-80
2022/07/12 00:39:23;;;;;;;4.55;2.85;;;;;;;14.36;50.56;95915.75;5106261;28;20088;-79
2022/07/12 00:41:49;;;;;;;3.80;3.00;;;;;;;14.33;51.56;95908.88;5105325;28;20031;-79
2022/07/12 00:44:15;;;;;;;3.85;3.20;;;;;;;14.26;52.06;95902.56;5088844;28;20027;-80
2022/07/12 00:46:40;;;;;;;3.35;3.00;;;;;;;14.29;51.23;95906.72;5086633;28;20493;-80
2022/07/12 00:49:05;;;;;;;3.42;2.90;;;;;;;14.33;50.97;95903.47;5088117;28;20023;-79
2022/07/12 00:51:31;;;;;;;5.38;3.10;;;;;;;14.32;50.92;95912.59;5069879;28;20023;-80
2022/07/12 00:53:57;;;;;;;4.93;3.05;;;;;;;14.26;51.69;95899.88;5070778;28;20027;-79
2022/07/12 00:56:23;;;;;;;5.18;3.10;;;;;;;14.28;52.18;95907.78;5087182;28;20024;-79
2022/07/12 00:58:48;;;;;;;4.13;3.10;;;;;;;14.24;52.11;95910.00;5087494;28;20132;-80
2022/07/12 01:01:13;;;;;;;4.13;3.33;;;;;;;14.17;52.39;95903.69;5088294;28;20031;-80
2022/07/12 01:03:39;;;;;;;3.70;3.15;;;;;;;14.05;51.86;95906.88;5086867;28;20035;-80
2022/07/12 01:06:06;;;;;;;3.88;3.30;;;;;;;14.07;51.85;95912.06;5088056;28;20051;-80
2022/07/12 01:08:31;;;;;;;5.80;3.40;;;;;;;14.01;52.39;95910.13;5070143;28;20137;-81
2022/07/12 01:10:57;;;;;;;4.70;3.28;;;;;;;13.95;52.54;95909.84;5088627;28;20024;-79
2022/07/12 01:13:22;;;;;;;3.50;3.15;;;;;;;13.94;52.78;95910.88;5070189;28;20051;-79
2022/07/12 01:15:48;;;;;;;3.90;3.30;;;;;;;13.92;52.98;95915.63;5088068;28;20015;-79
2022/07/12 01:18:13;;;;;;;3.30;3.00;;;;;;;13.88;53.04;95917.00;5087143;28;20035;-79
2022/07/12 01:20:39;;;;;;;3.72;2.90;;;;;;;13.84;53.55;95904.91;5054018;28;20032;-79
2022/07/12 01:23:04;;;;;;;5.82;3.40;;;;;;;13.81;53.93;95916.91;5087749;28;20433;-79
2022/07/12 01:25:30;;;;;;;5.30;3.10;;;;;;;13.74;53.33;95907.88;5069929;28;20073;-79
2022/07/12 01:27:55;;;;;;;4.93;3.17;;;;;;;13.76;52.98;95907.69;5087989;28;20487;-79
2022/07/12 01:30:21;;;;;;;4.63;3.30;;;;;;;13.74;52.94;95909.75;5104689;28;20023;-80
2022/07/12 01:32:46;;;;;;;3.70;3.30;;;;;;;13.69;53.47;95908.44;5088286;28;20024;-79
2022/07/12 01:35:12;;;;;;;4.10;3.20;;;;;;;13.61;53.26;95911.22;5070555;28;20490;-79
2022/07/12 01:37:38;;;;;;;4.95;3.38;;;;;;;13.55;53.77;95907.41;5088471;28;20027;-79
2022/07/12 01:40:05;;;;;;;4.25;3.65;;;;;;;13.51;53.67;95902.59;5054210;28;20038;-78
2022/07/12 01:42:31;;;;;;;3.47;3.00;;;;;;;13.48;54.15;95909.97;5087058;28;20023;-79
2022/07/12 01:44:56;;;;;;;3.17;2.88;;;;;;;13.50;53.92;95903.56;5071042;28;20371;-79
2022/07/12 01:47:23;;;;;;;5.40;3.40;;;;;;;13.48;53.75;95909.97;5069830;28;20106;-79
2022/07/12 01:49:48;;;;;;;3.67;3.28;;;;;;;13.48;53.65;95909.97;5087682;28;20705;-79
2022/07/12 01:52:14;;;;;;;9.13;3.45;;;;;;;13.40;53.69;95899.28;5086579;28;20088;-79
2022/07/12 01:54:40;;;;;;;3.78;3.35;;;;;;;13.47;53.69;95905.63;5070619;28;20518;-80
2022/07/12 01:57:05;;;;;;;4.57;3.10;;;;;;;13.44;54.69;95906.00;5086356;28;20027;-79
2022/07/12 01:59:31;;;;;;;3.78;2.88;;;;;;;13.47;53.82;95904.78;5107892;28;20045;-79
2022/07/12 02:01:56;;;;;;;3.95;3.20;;;;;;;13.44;54.51;95899.75;5108746;28;20028;-79
2022/07/12 02:04:22;;;;;;;4.28;3.40;;;;;;;13.43;54.65;95900.78;5108981;28;20019;-79
2022/07/12 02:06:47;;;;;;;4.50;3.67;;;;;;;13.41;53.88;95900.94;5090898;28;20044;-79
2022/07/12 02:09:12;;;;;;;3.83;2.83;;;;;;;13.41;53.94;95903.63;5073244;28;20027;-79
2022/07/12 02:11:38;;;;;;;4.00;2.92;;;;;;;13.41;54.24;95903.63;5090893;28;20035;-80
2022/07/12 02:14:03;;;;;;;4.03;2.88;;;;;;;13.37;54.62;95899.63;5089618;28;20078;-80
2022/07/12 02:16:29;;;;;;;6.35;3.75;;;;;;;13.34;54.36;95903.53;5074002;28;20024;-80
2022/07/12 02:18:54;;;;;;;5.40;3.13;;;;;;;13.31;53.85;95906.63;5072346;28;20030;-79
2022/07/12 02:21:20;;;;;;;3.75;3.17;;;;;;;13.32;54.44;95897.50;5090498;28;20019;-81
2022/07/12 02:23:45;;;;;;;3.97;2.70;;;;;;;13.27;54.05;95897.19;5073273;28;20016;-80
2022/07/12 02:26:11;;;;;;;7.45;3.20;;;;;;;13.26;54.94;95909.00;5090120;28;20031;-80
2022/07/12 02:28:36;;;;;;;4.35;3.17;;;;;;;13.27;55.52;95905.28;5090081;28;20229;-81
2022/07/12 02:31:02;;;;;;;4.15;2.92;;;;;;;13.28;54.50;95904.28;5073127;28;20110;-79
2022/07/12 02:33:28;;;;;;;3.63;2.97;;;;;;;13.31;54.00;95908.47;5073513;28;20502;-80
2022/07/12 02:35:53;;;;;;;5.70;3.00;;;;;;;13.33;54.20;95903.72;5107420;28;20134;-79
2022/07/12 02:38:20;;;;;;;4.03;2.72;;;;;;;13.33;54.14;95903.72;5108301;28;20510;-79
2022/07/12 02:40:54;;;;;;;5.85;3.22;;;;;;;13.29;55.02;95914.03;5072636;28;20055;-79
2022/07/12 02:43:24;;;;;;;4.47;2.88;;;;;;;13.33;54.35;95911.81;5091015;28;20035;-79
2022/07/12 02:45:49;;;;;;;4.78;2.97;;;;;;;13.26;54.14;95911.69;5089541;28;20028;-79
2022/07/12 02:48:15;;;;;;;5.05;3.05;;;;;;;13.32;53.85;95912.81;5089781;28;20118;-80
2022/07/12 02:50:40;;;;;;;3.95;2.88;;;;;;;13.32;53.83;95912.81;5090021;28;20071;-79
2022/07/12 02:53:06;;;;;;;5.32;3.00;;;;;;;13.33;53.49;95911.81;5089121;28;20020;-79
2022/07/12 02:55:32;;;;;;;3.42;2.60;;;;;;;13.31;53.69;95914.69;5073044;28;20024;-79
2022/07/12 02:57:57;;;;;;;3.33;2.53;;;;;;;13.31;53.60;95903.91;5088825;28;20028;-79
2022/07/12 03:00:23;;;;;;;5.70;2.97;;;;;;;13.30;53.58;95910.31;5089501;28;20025;-79
2022/07/12 03:02:48;;;;;;;4.55;2.92;;;;;;;13.34;53.55;95916.16;5071806;28;20046;-80
2022/07/12 03:05:13;;;;;;;3.88;2.83;;;;;;;13.32;54.06;95915.50;5107716;28;20019;-79
2022/07/12 03:07:39;;;;;;;5.80;2.72;;;;;;;13.33;54.15;95923.41;5072636;28;20442;-79
2022/07/12 03:10:05;;;;;;;5.35;2.75;;;;;;;13.37;53.72;95925.72;5105821;28;20032;-80
2022/07/12 03:12:30;;;;;;;3.88;2.88;;;;;;;13.30;53.57;95931.03;5072314;28;20571;-81
2022/07/12 03:14:56;;;;;;;3.65;2.70;;;;;;;13.25;53.93;95941.50;5071317;28;20543;-80
2022/07/12 03:17:22;;;;;;;3.53;2.78;;;;;;;13.27;53.74;95937.59;5089332;28;20034;-80
2022/07/12 03:19:47;;;;;;;5.72;3.20;;;;;;;13.31;53.49;95943.47;5071618;28;20016;-79
2022/07/12 03:22:12;;;;;;;4.13;3.08;;;;;;;13.33;53.96;95947.66;5107241;28;20034;-80
2022/07/12 03:24:38;;;;;;;7.35;3.35;;;;;;;13.28;54.75;95946.53;5088791;28;20016;-80
2022/07/12 03:27:03;;;;;;;5.00;3.78;;;;;;;13.29;54.96;95949.03;5106629;28;20038;-80
2022/07/12 03:29:29;;;;;;;7.63;3.70;;;;;;;13.28;54.83;95949.22;5107327;28;20019;-80
2022/07/12 03:31:54;;;;;;;9.20;4.00;;;;;;;13.28;55.16;95938.44;5106453;28;20099;-80
2022/07/12 03:34:20;;;;;;;6.03;3.63;;;;;;;13.31;54.64;95944.31;5107062;28;20118;-80
2022/07/12 03:36:45;;;;;;;7.35;3.63;;;;;;;13.31;54.97;95946.16;5070864;28;20023;-80
2022/07/12 03:39:11;;;;;;;7.68;4.40;;;;;;;13.32;54.97;95948.69;5088650;28;20047;-81
2022/07/12 03:41:36;;;;;;;7.53;4.07;;;;;;;13.32;55.22;95945.13;5088215;28;20080;-80
2022/07/12 03:44:02;;;;;;;5.43;3.88;;;;;;;13.28;55.88;95943.84;5107015;28;20012;-80
2022/07/12 03:46:27;;;;;;;6.53;3.92;;;;;;;13.25;56.00;95952.28;5088109;28;20417;-80
2022/07/12 03:48:52;;;;;;;4.43;3.53;;;;;;;13.26;55.58;95951.25;5107630;28;20409;-79
2022/07/12 03:51:18;;;;;;;6.28;3.72;;;;;;;13.25;55.33;95954.97;5096939;28;20317;-80
2022/07/12 03:53:43;;;;;;;7.30;4.22;;;;;;;13.25;55.04;95953.09;5094073;28;20081;-80
2022/07/12 03:56:09;;;;;;;5.72;3.80;;;;;;;13.26;55.44;95957.50;5106614;28;20023;-79
2022/07/12 03:58:34;;;;;;;5.95;4.53;;;;;;;13.24;55.15;95954.13;5087448;28;20077;-79
2022/07/12 04:01:00;;;;;;;7.53;3.80;;;;;;;13.28;54.78;95960.00;5088164;28;20050;-79
2022/07/12 04:03:25;;;;;;;4.15;3.75;;;;;;;13.32;54.83;95961.31;5087129;28;20031;-80
2022/07/12 04:05:50;;;;;;;5.93;3.60;;;;;;;13.22;54.88;95957.00;5106294;28;20039;-79
2022/07/12 04:08:16;;;;;;;6.10;4.32;;;;;;;13.10;55.36;95953.91;5087580;28;20026;-79
2022/07/12 04:10:41;;;;;;;5.82;3.70;;;;;;;13.07;55.90;95956.13;5088014;28;20027;-80
2022/07/12 04:13:07;;;;;;;4.95;3.85;;;;;;;13.08;55.73;95963.19;5088018;28;20028;-79
2022/07/12 04:15:32;;;;;;;4.00;3.55;;;;;;;13.15;55.56;95966.00;5105726;28;20454;-80
2022/07/12 04:17:58;;;;;;;4.78;4.05;;;;;;;13.21;55.80;95971.50;5087866;28;20212;-79
2022/07/12 04:20:23;;;;;;;10.90;4.00;;;;;;;13.37;54.70;95975.06;5086712;28;20019;-80
2022/07/12 04:22:49;;;;;;;6.75;3.83;;;;;;;13.42;55.05;95972.69;5087880;28;20030;-79
2022/07/12 04:25:14;;;;;;;4.72;3.60;;;;;;;13.44;55.40;95972.50;5070140;28;20490;-79
2022/07/12 04:27:40;;;;;;;7.00;3.92;;;;;;;13.49;55.21;95983.56;5087976;28;20452;-79
2022/07/12 04:30:06;;;;;;;6.32;3.83;;;;;;;13.61;55.54;95981.28;5105646;28;20034;-80
2022/07/12 04:32:31;;;;;;;5.72;3.28;;;;;;;13.77;55.43;95974.06;5087287;28;20031;-80
2022/07/12 04:34:56;;;;;;;4.90;3.58;;;;;;;13.93;54.86;95979.28;5088355;28;20024;-80
2022/07/12 04:37:22;;;;;;;7.40;4.05;;;;;;;14.11;53.97;95980.78;5105374;28;20342;-80
2022/07/12 04:39:47;;;;;;;6.47;3.50;;;;;;;14.23;53.93;95989.28;5106189;28;20022;-80
2022/07/12 04:42:13;;;;;;;4.00;3.38;;;;;;;14.43;53.72;95988.69;5104873;28;20033;-81
2022/07/12 04:44:38;;;;;;;6.60;3.80;;;;;;;14.52;54.71;95982.19;5105712;28;20027;-80
2022/07/12 04:47:04;;;;;;;5.65;3.67;;;;;;;14.60;53.96;95983.94;5070247;28;20116;-81
2022/07/12 04:49:31;;;;;;;12.05;3.70;;;;;;;14.77;53.56;95981.84;5105513;28;20035;-80
2022/07/12 04:51:57;;;;;;;6.57;4.00;;;;;;;14.92;54.14;95987.25;5105764;28;20489;-80
2022/07/12 04:54:22;;;;;;;5.65;3.50;;;;;;;15.08;53.72;95985.31;5069918;28;20028;-80
2022/07/12 04:56:48;;;;;;;7.75;3.90;;;;;;;15.22;53.31;95990.88;5106096;28;20023;-81
2022/07/12 04:59:14;;;;;;;6.80;3.70;;;;;;;15.36;53.37;95987.25;5105196;28;20023;-80
2022/07/12 05:01:40;;;;;;;5.07;3.20;;;;;;;15.51;53.12;95983.66;5105877;28;20024;-80
2022/07/12 05:04:05;;;;;;;5.65;3.33;;;;;;;15.65;51.92;95984.59;5086877;28;20528;-80
2022/07/12 05:06:31;;;;;;;4.40;3.15;;;;;;;15.80;51.86;95989.88;5087121;28;20044;-80
2022/07/12 05:08:56;;;;;;;8.18;3.88;;;;;;;15.93;52.28;95987.28;5087421;28;20031;-80
2022/07/12 05:11:23;;;;;;;7.40;3.22;;;;;;;16.09;50.68;95988.03;5106692;28;20023;-80
2022/07/12 05:13:48;;;;;;;6.15;3.17;;;;;;;16.23;50.59;95985.44;5106396;28;20039;-81
2022/07/12 05:16:14;;;;;;;7.32;3.13;;;;;;;16.38;51.06;95994.25;5088316;28;20032;-80
2022/07/12 05:18:39;;;;;;;6.65;3.30;;;;;;;16.51;50.59;95987.22;5106440;28;20035;-80
2022/07/12 05:21:05;;;;;;;5.60;3.10;;;;;;;16.63;50.30;95980.22;5105019;28;20123;-81
2022/07/12 05:23:31;;;;;;;6.55;3.15;;;;;;;16.71;51.02;95986.47;5070439;28;20035;-80
2022/07/12 05:25:56;;;;;;;5.45;3.38;;;;;;;16.85;50.22;95984.66;5104806;28;20095;-80
2022/07/12 05:28:21;;;;;;;4.70;2.70;;;;;;;16.84;49.90;95985.69;5087606;28;20521;-80
2022/07/12 05:30:47;;;;;;;7.65;3.25;;;;;;;16.89;48.82;95985.94;5070019;28;20498;-81
2022/07/12 05:33:12;;;;;;;3.95;2.78;;;;;;;17.14;49.42;95983.53;5088076;28;20046;-80
2022/07/12 05:35:38;;;;;;;5.57;2.80;;;;;;;17.34;48.74;95990.88;5091191;28;20028;-81
2022/07/12 05:38:03;;;;;;;5.15;2.58;;;;;;;17.36;47.88;95986.06;5108738;28;20447;-79
2022/07/12 05:40:29;;;;;;;9.02;2.90;;;;;;;17.47;47.36;95976.50;5090714;28;20043;-81
2022/07/12 05:42:54;;;;;;;5.05;2.90;;;;;;;17.40;46.72;95979.19;5073048;28;20111;-79
2022/07/12 05:45:20;;;;;;;3.63;2.25;;;;;;;17.52;46.84;95976.69;5074387;28;20036;-79
2022/07/12 05:47:45;;;;;;;3.50;2.65;;;;;;;17.36;47.54;95983.34;5073691;28;20023;-81
2022/07/12 05:50:11;;;;;;;4.60;2.70;;;;;;;17.52;47.51;95973.97;5090979;28;20442;-80
2022/07/12 05:55:20;;;;;;;4.75;2.80;;;;;;;17.86;47.33;95971.25;5093266;28;20043;-81
2022/07/12 05:57:46;;;;;;;7.22;2.63;;;;;;;17.96;47.07;95970.81;5090900;28;20016;-81
2022/07/12 06:00:11;;;;;;;5.47;2.70;;;;;;;17.77;47.02;95978.78;5108272;28;20443;-81
2022/07/12 06:02:37;;;;;;;5.82;3.00;;;;;;;18.11;46.68;95970.59;5090605;28;20106;-81
2022/07/12 06:05:02;;;;;;;8.45;3.38;;;;;;;18.39;46.16;95969.50;5090053;28;20434;-81
2022/07/12 06:07:28;;;;;;;6.07;2.53;;;;;;;18.23;45.89;95972.69;5108707;28;20074;-81
2022/07/12 06:09:53;;;;;;;6.15;2.90;;;;;;;18.27;45.85;95966.63;5107775;28;20015;-80
2022/07/12 06:12:19;;;;;;;5.97;2.47;;;;;;;18.11;46.10;95965.19;5090169;28;20026;-82
2022/07/12 06:14:44;;;;;;;8.30;2.55;;;;;;;18.10;45.22;95960.81;5072818;28;20024;-81
2022/07/12 06:17:09;;;;;;;7.05;2.65;;;;;;;18.38;45.25;95962.41;5089819;28;20027;-80
2022/07/12 06:19:35;;;;;;;6.35;2.40;;;;;;;18.64;45.37;95965.25;5090181;28;20419;-82
2022/07/12 06:22:01;;;;;;;4.95;2.30;;;;;;;18.65;45.47;95961.50;5088961;28;20509;-81
2022/07/12 06:24:26;;;;;;;7.03;2.88;;;;;;;18.76;44.36;95955.38;5090460;28;20031;-82
2022/07/12 06:26:52;;;;;;;4.75;2.30;;;;;;;18.36;45.42;95958.25;5088878;28;20047;-79
2022/07/12 06:29:17;;;;;;;3.55;1.90;;;;;;;18.06;45.29;95959.53;5108230;28;20028;-80
2022/07/12 06:31:42;;;;;;;3.92;1.90;;;;;;;18.46;44.68;95952.38;5089050;28;20019;-81
2022/07/12 06:34:08;;;;;;;5.25;1.48;;;;;;;17.94;44.22;95955.81;5108055;28;20272;-81
2022/07/12 06:36:33;;;;;;;2.90;1.75;;;;;;;17.85;44.50;95952.47;5107844;28;20019;-81
2022/07/12 06:38:59;;;;;;;3.22;1.50;;;;;;;17.79;43.51;95954.16;5107405;28;20019;-80
2022/07/12 06:41:25;;;;;;;3.10;1.50;;;;;;;17.82;44.06;95953.72;5089777;28;20028;-81
2022/07/12 06:43:50;;;;;;;4.22;1.50;;;;;;;17.88;44.93;95947.47;5106352;28;20035;-81
2022/07/12 06:46:16;;;;;;;4.13;1.45;;;;;;;17.84;43.89;95953.53;5089385;28;20391;-80
2022/07/12 06:48:41;;;;;;;5.70;1.80;;;;;;;18.18;43.30;95954.34;5088664;28;20527;-81
2022/07/12 06:51:06;;;;;;;3.85;2.05;;;;;;;18.48;43.51;95945.69;5089452;28;20455;-80
2022/07/12 06:53:32;;;;;;;4.05;2.10;;;;;;;18.70;43.73;95947.28;5071935;28;20077;-79
2022/07/12 06:55:57;;;;;;;4.38;1.77;;;;;;;18.31;43.82;95939.06;5072100;28;20016;-81
2022/07/12 06:58:23;;;;;;;5.07;1.75;;;;;;;18.23;44.08;95945.56;5107643;28;20105;-80
2022/07/12 07:00:49;;;;;;;2.42;1.40;;;;;;;18.07;44.70;95944.91;5106812;28;20470;-80
2022/07/12 07:03:14;;;;;;;2.65;1.30;;;;;;;18.51;43.50;95947.13;5107263;28;20028;-81
2022/07/12 07:05:39;;;;;;;2.80;1.55;;;;;;;18.73;43.04;95944.13;5088358;28;20205;-81
2022/07/12 07:08:05;;;;;;;4.10;1.25;;;;;;;18.76;42.16;95941.81;5071888;28;20062;-80
2022/07/12 07:10:30;;;;;;;3.83;1.70;;;;;;;18.63;42.70;95953.56;5088233;28;20043;-80
2022/07/12 07:12:56;;;;;;;7.20;1.60;;;;;;;18.93;42.42;95945.88;5089397;28;20032;-80
2022/07/12 07:15:21;;;;;;;4.78;1.35;;;;;;;18.88;42.49;95944.66;5106499;28;20043;-81
2022/07/12 07:17:47;;;;;;;4.43;1.50;;;;;;;18.77;43.59;95943.47;5106820;28;20028;-81
2022/07/12 07:20:12;;;;;;;2.85;1.40;;;;;;;18.80;42.44;95947.63;5088783;28;20032;-80
2022/07/12 07:22:38;;;;;;;5.15;1.40;;;;;;;19.01;41.89;95940.19;5107413;28;20028;-80
2022/07/12 07:25:04;;;;;;;4.32;1.40;;;;;;;18.92;41.53;95934.19;5107659;28;20027;-79
2022/07/12 07:27:30;;;;;;;2.65;1.30;;;;;;;18.63;41.90;95920.13;5071653;28;20035;-81
2022/07/12 07:32:39;;;;;;;6.35;1.42;;;;;;;18.62;42.16;95935.59;5090953;28;20088;-81
2022/07/12 07:35:07;;;;;;;6.32;1.33;;;;;;;18.84;41.69;95943.44;5106287;28;20015;-79
2022/07/12 07:37:33;;;;;;;4.05;1.38;;;;;;;19.14;40.92;95932.00;5088864;28;20058;-79
2022/07/12 07:39:59;;;;;;;6.57;1.60;;;;;;;19.20;40.52;95929.47;5087616;28;20023;-81
2022/07/12 07:42:24;;;;;;;4.07;1.33;;;;;;;18.84;40.96;95921.69;5106347;28;20035;-80
2022/07/12 07:44:49;;;;;;;3.15;1.23;;;;;;;18.94;41.61;95918.50;5070820;28;20034;-81
2022/07/12 07:47:15;;;;;;;3.65;1.38;;;;;;;18.88;42.25;95913.91;5088236;28;20016;-80
2022/07/12 07:49:40;;;;;;;5.20;1.30;;;;;;;18.92;40.72;95926.03;5105701;28;20031;-81
2022/07/12 07:52:06;;;;;;;2.45;1.20;;;;;;;18.87;39.90;95923.97;5088361;28;20712;-80
2022/07/12 07:54:31;;;;;;;2.17;1.15;;;;;;;19.06;39.88;95923.22;5087826;28;20454;-81
2022/07/12 07:56:57;;;;;;;8.55;2.00;;;;;;;19.17;39.92;95924.47;5105526;28;20027;-80
2022/07/12 07:59:22;;;;;;;4.30;1.23;;;;;;;19.10;39.18;95922.59;5106220;28;20019;-80
2022/07/12 08:01:52;;;;;;;3.92;1.38;;;;;;;18.97;39.45;95922.66;5105060;28;20225;-80
2022/07/12 08:04:18;;;;;;;6.53;1.33;;;;;;;19.17;38.95;95921.75;5106320;28;20084;-80
2022/07/12 08:06:44;;;;;;;3.42;1.40;;;;;;;19.26;39.00;95920.41;5070284;28;20039;-80
2022/07/12 08:09:09;;;;;;;2.85;1.20;;;;;;;19.34;40.09;95917.44;5087938;28;20414;-80
2022/07/12 08:11:35;;;;;;;3.40;1.20;;;;;;;19.26;39.03;95923.94;5105535;28;20023;-81
2022/07/12 08:14:01;;;;;;;3.10;1.23;;;;;;;19.31;38.49;95915.16;5071023;28;20106;-81
2022/07/12 08:16:27;;;;;;;2.53;1.20;;;;;;;19.82;38.95;95920.56;5087746;28;20096;-80
2022/07/12 08:18:52;;;;;;;5.82;1.15;;;;;;;19.74;37.88;95912.69;5070315;28;20023;-79
2022/07/12 08:21:18;;;;;;;2.33;1.10;;;;;;;19.74;36.97;95913.53;5087938;28;20027;-80
2022/07/12 08:23:43;;;;;;;2.47;0.80;;;;;;;19.79;35.28;95904.69;5086764;28;20031;-80
2022/07/12 08:26:09;;;;;;;3.05;0.80;;;;;;;19.87;35.90;95907.13;5105957;28;20024;-80
2022/07/12 08:28:34;;;;;;;5.43;0.95;;;;;;;19.60;37.12;95910.06;5086601;28;20024;-81
2022/07/12 08:31:00;;;;;;;2.80;0.90;;;;;;;19.93;36.06;95902.66;5087743;28;20041;-81
2022/07/12 08:33:25;;;;;;;2.88;1.15;;;;;;;19.92;37.21;95908.34;5105260;28;20023;-81
2022/07/12 08:35:51;;;;;;;5.38;0.90;;;;;;;19.73;36.75;95903.69;5105497;28;20031;-81
2022/07/12 08:38:16;;;;;;;2.50;1.10;;;;;;;19.31;38.50;95909.72;5070611;28;20547;-80
2022/07/12 08:40:42;;;;;;;3.58;1.00;;;;;;;19.45;39.29;95912.31;5104393;28;20405;-81
2022/07/12 08:43:08;;;;;;;3.70;0.98;;;;;;;19.82;37.82;95901.53;5087759;28;20422;-80
2022/07/12 08:45:33;;;;;;;3.08;1.00;;;;;;;20.08;37.05;95896.06;5087333;28;20540;-81
2022/07/12 08:47:59;;;;;;;2.78;1.02;;;;;;;19.87;37.60;95893.53;5088318;28;20023;-80
2022/07/12 08:50:26;;;;;;;4.65;0.95;;;;;;;19.47;37.57;95902.06;5104801;28;20028;-80
2022/07/12 08:52:54;;;;;;;4.57;1.20;;;;;;;19.66;37.54;95888.47;5087678;28;20027;-79
2022/07/12 08:55:29;;;;;;;4.63;0.95;;;;;;;19.56;38.57;95905.31;5071438;28;20309;-81
2022/07/12 08:57:58;;;;;;;6.50;0.98;;;;;;;19.77;37.33;95895.91;5107791;28;20534;-80
2022/07/12 09:00:25;;;;;;;3.95;1.00;;;;;;;19.91;37.15;95893.06;5073830;28;20023;-81
2022/07/12 09:02:51;;;;;;;4.20;1.00;;;;;;;20.18;36.46;95895.53;5086486;28;20114;-80
2022/07/12 09:05:19;;;;;;;2.95;0.73;;;;;;;20.40;35.51;95884.16;5088082;28;20043;-81
2022/07/12 09:07:46;;;;;;;3.25;0.75;;;;;;;20.07;36.46;95888.97;5070163;28;20053;-81
2022/07/12 09:10:12;;;;;;;2.65;0.90;;;;;;;20.04;36.97;95890.22;5074332;28;20023;-80
2022/07/12 09:12:37;;;;;;;3.13;1.17;;;;;;;19.63;38.04;95884.34;5090986;28;20031;-81
2022/07/12 09:15:12;;;;;;;3.85;1.08;;;;;;;19.80;37.71;95890.03;5074161;28;20023;-80
2022/07/12 09:17:38;;;;;;;1.30;0.63;;;;;;;20.09;37.24;95878.66;5109949;28;20024;-80
2022/07/12 09:20:04;;;;;;;4.53;1.02;;;;;;;20.15;37.11;95880.50;5073620;28;20502;-81
2022/07/12 09:22:30;;;;;;;2.78;1.00;;;;;;;19.97;37.04;95878.56;5091196;28;20042;-80
2022/07/12 09:24:55;;;;;;;3.83;0.98;;;;;;;20.05;36.33;95881.03;5090119;28;20027;-81
2022/07/12 09:27:25;;;;;;;1.60;0.90;;;;;;;20.12;35.50;95876.31;5091523;28;20028;-80
2022/07/12 09:29:50;;;;;;;6.10;1.20;;;;;;;20.37;35.24;95861.78;5090539;28;20099;-80
2022/07/12 09:37:44;;;;;;;3.83;0.90;;;;;;;20.42;33.60;95861.09;5093037;28;20088;-83
2022/07/12 09:40:09;;;;;;;9.10;1.20;;;;;;;20.42;36.05;95860.25;5091193;28;20470;-81
2022/07/12 09:42:35;;;;;;;5.68;1.00;;;;;;;20.39;37.07;95858.84;5108428;28;20492;-81
2022/07/12 09:45:00;;;;;;;3.35;1.05;;;;;;;20.41;34.73;95864.88;5090326;28;20049;-80
2022/07/12 09:47:26;;;;;;;3.33;0.80;;;;;;;20.65;34.93;95866.88;5109592;28;20102;-81
2022/07/12 09:49:54;;;;;;;6.20;1.00;;;;;;;20.36;35.59;95865.56;5073173;28;20051;-80
2022/07/12 09:52:24;;;;;;;3.58;0.75;;;;;;;20.28;35.15;95870.50;5058284;28;20027;-80
2022/07/12 09:54:52;;;;;;;1.65;0.80;;;;;;;20.31;34.82;95861.88;5090693;28;20459;-82
2022/07/12 09:57:29;;;;;;;3.85;0.90;;;;;;;20.49;34.96;95855.56;5091046;28;20024;-82
2022/07/12 09:59:55;;;;;;;4.07;1.50;;;;;;;20.55;33.56;95857.38;5056670;28;20088;-81
2022/07/12 10:02:21;;;;;;;2.17;1.10;;;;;;;20.82;33.06;95857.00;5090811;28;20039;-80
2022/07/12 10:04:47;;;;;;;4.63;0.80;;;;;;;20.52;33.20;95870.63;5073525;28;20020;-81
2022/07/12 10:07:13;;;;;;;4.35;0.73;;;;;;;20.44;33.01;95861.69;5072521;28;20444;-81
2022/07/12 10:09:40;;;;;;;4.10;0.80;;;;;;;20.74;32.22;95860.03;5090542;28;20140;-80
2022/07/12 10:12:06;;;;;;;5.90;1.00;;;;;;;20.60;32.83;95854.75;5072611;28;20055;-81
2022/07/12 10:14:31;;;;;;;4.35;0.63;;;;;;;20.57;31.98;95855.22;5056886;28;20481;-80
2022/07/12 10:16:56;;;;;;;2.70;0.93;;;;;;;20.48;33.49;95845.72;5072212;28;20031;-81
2022/07/12 10:19:26;;;;;;;3.63;1.00;;;;;;;20.43;33.99;95857.31;5072982;28;20427;-81
2022/07/12 10:21:53;;;;;;;2.05;0.82;;;;;;;20.68;34.90;95845.47;5073671;28;20425;-81
2022/07/12 10:24:41;;;;;;;4.53;0.98;;;;;;;20.72;34.08;95843.06;5072827;28;20031;-80
2022/07/12 10:27:15;;;;;;;3.72;0.80;;;;;;;20.80;32.53;95850.94;5089988;28;20039;-81
2022/07/12 10:29:41;;;;;;;1.67;0.70;;;;;;;20.85;31.30;95850.22;5088985;28;20472;-80
2022/07/12 10:32:27;;;;;;;3.15;0.75;;;;;;;20.95;31.64;95839.63;5073320;28;20023;-81
2022/07/12 10:35:00;;;;;;;3.85;1.00;;;;;;;21.10;31.44;95841.91;5089315;28;20020;-81
2022/07/12 10:37:25;;;;;;;3.05;0.80;;;;;;;20.91;30.66;95841.13;5089576;28;20019;-81
2022/07/12 10:40:10;;;;;;;3.75;0.80;;;;;;;21.01;31.35;95837.84;5073261;28;20039;-81
2022/07/12 10:42:35;;;;;;;6.03;1.00;;;;;;;21.04;31.88;95831.94;5107114;28;20036;-81
2022/07/12 10:45:14;;;;;;;4.75;0.77;;;;;;;20.86;33.41;95830.09;5072927;28;20501;-80
2022/07/12 10:48:01;;;;;;;4.00;1.02;;;;;;;20.94;34.06;95835.22;5089420;28;20379;-80
2022/07/12 10:51:02;;;;;;;3.13;0.90;;;;;;;20.66;32.32;95833.94;5071713;28;20165;-81
2022/07/12 10:53:30;;;;;;;1.70;0.70;;;;;;;20.38;32.44;95836.19;5107434;28;20032;-81
2022/07/12 10:56:21;;;;;;;4.95;1.30;;;;;;;20.45;32.59;95827.94;5106766;28;20103;-81
2022/07/12 10:58:54;;;;;;;8.80;1.20;;;;;;;20.40;33.08;95841.41;5074204;28;20031;-79
2022/07/12 11:01:24;;;;;;;2.70;0.90;;;;;;;20.67;32.57;95842.97;5107596;28;20016;-80
2022/07/12 11:03:51;;;;;;;2.85;1.23;;;;;;;20.77;32.65;95837.78;5106543;28;20039;-81
2022/07/12 11:06:18;;;;;;;2.00;0.80;;;;;;;20.90;32.26;95835.91;5089520;28;20031;-81
2022/07/12 11:09:00;;;;;;;4.65;0.98;;;;;;;21.00;32.76;95833.47;5071482;28;20044;-81
2022/07/12 11:11:48;;;;;;;2.67;0.90;;;;;;;21.03;32.96;95833.00;5072128;28;20063;-80
2022/07/12 11:14:30;;;;;;;8.25;1.08;;;;;;;21.22;32.05;95838.38;5089301;28;20115;-81
2022/07/12 11:16:56;;;;;;;2.75;0.80;;;;;;;21.13;32.79;95843.34;5089738;28;20444;-81
2022/07/12 11:19:26;;;;;;;3.25;0.90;;;;;;;21.11;32.37;95840.84;5107229;28;20030;-81
2022/07/12 11:21:56;;;;;;;7.97;0.80;;;;;;;21.30;31.95;95846.22;5088179;28;20502;-80
2022/07/12 11:24:22;;;;;;;4.40;1.10;;;;;;;21.38;32.00;95841.50;5073095;28;20038;-80
2022/07/12 11:26:47;;;;;;;4.22;0.90;;;;;;;21.44;31.04;95841.34;5088255;28;20032;-80
2022/07/12 11:29:13;;;;;;;1.73;0.70;;;;;;;21.53;30.19;95844.56;5088035;28;20027;-81
2022/07/12 11:31:38;;;;;;;2.42;0.73;;;;;;;21.39;32.32;95832.22;5070854;28;20027;-81
2022/07/12 11:34:04;;;;;;;2.20;1.00;;;;;;;21.33;32.14;95831.25;5088122;28;20548;-81
2022/07/12 11:36:29;;;;;;;2.90;1.10;;;;;;;21.30;32.57;95840.75;5088755;28;20485;-81
2022/07/12 11:38:55;;;;;;;2.28;0.82;;;;;;;21.50;32.44;95836.88;5054716;28;20024;-81
2022/07/12 11:41:22;;;;;;;5.65;1.08;;;;;;;21.43;32.55;95828.78;5088653;28;20024;-80